Terminal Aerodrome Forecast
Issued by NWS St Louis, MO

Home | Current Version | Previous Version | Graphics & Text | Print | Product List | Glossary On
Versions: 1 2 3 4 5 6 7 8 9 10 11 12 13 14 15 16 17 18 19 20 21 22 23 24 25
752
FTUS43 KLSX 190905 AAA
TAFSTL
TAF AMD
KSTL 190905Z 1909/2012 VRB03KT 4SM BR SCT005
      TEMPO 1910/1913 2SM BR BKN005
     FM191400 VRB04KT P6SM SCT030
     FM191800 23006KT P6SM SCT040
     FM200000 15006KT P6SM SKC=

USA.gov is the U.S. government's official web portal to all federal, state and local government web resources and services.